Time;durP1;ratioP1;P1;durP2;ratioP2;P2;SDS_P1;SDS_P2;PMS_P1;PMS_P2;Temp;Humidity;BMP_temperature;BMP_pressure;BME280_temperature;BME280_humidity;BME280_pressure;Samples;Min_cycle;Max_cycle;Signal;HPM_P1;HPM_P2
2022/12/09 00:02:14;;;;;;;;;;;;;;;8.24;61.96;93714.03;5007787;28;20400;-77
2022/12/09 00:04:39;;;;;;;;;;;;;;;8.05;62.01;93719.50;5010681;28;19963;-79
2022/12/09 00:07:04;;;;;;;;;;;;;;;8.12;62.22;93703.97;5006348;28;20007;-77
2022/12/09 00:09:29;;;;;;;;;;;;;;;8.19;61.70;93716.81;5007910;28;20460;-75
2022/12/09 00:11:55;;;;;;;;;;;;;;;8.04;62.12;93704.69;5007448;28;19923;-77
2022/12/09 00:14:20;;;;;;;;;;;;;;;7.73;61.83;93654.25;5005857;28;20356;-75
2022/12/09 00:16:45;;;;;;;;;;;;;;;8.14;61.74;93719.56;5008248;28;20016;-77
2022/12/09 00:19:11;;;;;;;;;;;;;;;8.25;61.43;93718.25;5008201;28;19921;-79
2022/12/09 00:21:36;;;;;;;;;;;;;;;8.04;61.11;93717.16;5008637;28;20274;-79
2022/12/09 00:24:03;;;;;;;;;;;;;;;7.93;62.00;93729.81;5006422;28;19997;-78
2022/12/09 00:26:29;;;;;;;;;;;;;;;7.97;62.10;93733.44;4992396;28;19975;-79
2022/12/09 00:28:54;;;;;;;;;;;;;;;8.09;62.05;93719.69;5008326;28;20071;-77
2022/12/09 00:31:23;;;;;;;;;;;;;;;7.96;62.60;93733.75;5009315;28;20297;-78
2022/12/09 00:33:48;;;;;;;;;;;;;;;8.04;63.06;93717.94;5007383;28;20011;-79
2022/12/09 00:36:15;;;;;;;;;;;;;;;7.81;64.23;93726.91;5008729;28;19927;-79
2022/12/09 00:38:40;;;;;;;;;;;;;;;7.88;63.67;93731.78;5006241;28;19921;-78
2022/12/09 00:41:06;;;;;;;;;;;;;;;7.88;63.82;93724.63;4992658;28;20377;-77
2022/12/09 00:43:31;;;;;;;;;;;;;;;8.00;63.96;93737.38;5005478;28;19967;-78
2022/12/09 00:45:57;;;;;;;;;;;;;;;7.97;63.73;93744.03;5006489;28;19924;-78
2022/12/09 00:48:22;;;;;;;;;;;;;;;7.91;64.21;93742.59;5009295;28;19929;-78
2022/12/09 00:50:48;;;;;;;;;;;;;;;8.01;64.20;93736.28;5007139;28;20324;-81
2022/12/09 00:53:13;;;;;;;;;;;;;;;8.09;63.46;93719.69;5008515;28;19985;-75
2022/12/09 00:55:38;;;;;;;;;;;;;;;8.04;63.84;93722.44;5008043;28;19917;-77
2022/12/09 00:58:04;;;;;;;;;;;;;;;8.09;63.84;93728.41;5007566;28;20075;-78
2022/12/09 01:00:29;;;;;;;;;;;;;;;8.15;63.51;93731.72;5005978;28;20466;-78
2022/12/09 01:02:54;;;;;;;;;;;;;;;8.16;63.55;93722.72;5004682;28;19925;-75
2022/12/09 01:05:20;;;;;;;;;;;;;;;8.24;63.45;93719.34;5007711;28;19952;-77
2022/12/09 01:07:45;;;;;;;;;;;;;;;8.31;63.42;93726.88;5007226;28;19982;-76
2022/12/09 01:10:10;;;;;;;;;;;;;;;8.22;63.25;93700.28;5006568;28;20028;-78
2022/12/09 01:12:35;;;;;;;;;;;;;;;8.32;63.20;93704.56;5007302;28;20373;-77
2022/12/09 01:15:01;;;;;;;;;;;;;;;8.24;63.88;93698.13;5006857;28;19940;-78
2022/12/09 01:17:26;;;;;;;;;;;;;;;8.30;63.56;93699.59;5003215;28;20027;-78
2022/12/09 01:19:51;;;;;;;;;;;;;;;8.31;63.96;93697.72;5007776;28;19951;-76
2022/12/09 01:22:16;;;;;;;;;;;;;;;8.38;63.81;93703.38;5008353;28;19917;-77
2022/12/09 01:24:42;;;;;;;;;;;;;;;8.41;63.37;93703.56;5006484;28;19943;-76
2022/12/09 01:27:07;;;;;;;;;;;;;;;8.44;63.63;93707.47;5006187;28;19917;-78
2022/12/09 01:29:32;;;;;;;;;;;;;;;8.41;63.70;93708.09;5006021;28;19928;-76
2022/12/09 01:31:58;;;;;;;;;;;;;;;8.46;63.29;93708.72;5007820;28;19919;-77
2022/12/09 01:34:23;;;;;;;;;;;;;;;8.48;63.14;93706.56;5007827;28;19956;-76
2022/12/09 01:36:48;;;;;;;;;;;;;;;8.55;63.11;93719.41;4992866;28;19963;-76
2022/12/09 01:39:15;;;;;;;;;;;;;;;8.55;62.63;93733.44;5006598;28;19921;-77
2022/12/09 01:41:40;;;;;;;;;;;;;;;8.34;63.01;93716.44;5007452;28;19951;-75
2022/12/09 01:44:13;;;;;;;;;;;;;;;8.16;63.22;93728.00;4990274;28;20007;-78
2022/12/09 01:46:39;;;;;;;;;;;;;;;8.07;63.84;93713.91;5010994;28;19929;-77
2022/12/09 01:49:05;;;;;;;;;;;;;;;8.06;63.53;93707.03;5004511;28;19925;-77
2022/12/09 01:51:31;;;;;;;;;;;;;;;7.96;64.18;93694.03;5001744;28;19929;-77
2022/12/09 01:53:56;;;;;;;;;;;;;;;8.08;64.44;93694.28;5008587;28;19917;-78
2022/12/09 01:56:24;;;;;;;;;;;;;;;8.09;64.76;93695.84;5010801;28;19921;-76
2022/12/09 01:58:50;;;;;;;;;;;;;;;8.12;64.64;93711.13;5008214;28;19913;-78
2022/12/09 02:01:16;;;;;;;;;;;;;;;8.17;64.25;93708.34;4995480;28;19923;-77
2022/12/09 02:03:42;;;;;;;;;;;;;;;7.95;64.54;93695.09;4990761;28;20297;-77
2022/12/09 02:06:07;;;;;;;;;;;;;;;8.13;64.06;93702.09;4991347;28;19925;-77
2022/12/09 02:08:32;;;;;;;;;;;;;;;8.08;63.74;93710.16;4995812;28;19952;-77
2022/12/09 02:11:00;;;;;;;;;;;;;;;8.16;63.56;93704.16;4990003;28;19927;-77
2022/12/09 02:13:26;;;;;;;;;;;;;;;8.15;63.37;93700.72;5007157;28;19916;-76
2022/12/09 02:15:53;;;;;;;;;;;;;;;8.01;63.59;93693.91;5006051;28;20391;-77
2022/12/09 02:18:21;;;;;;;;;;;;;;;8.06;63.57;93699.09;5002533;28;20548;-76
2022/12/09 02:20:58;;;;;;;;;;;;;;;8.14;63.54;93682.47;5005346;28;19928;-77
2022/12/09 02:23:37;;;;;;;;;;;;;;;8.22;63.05;93679.09;4989980;28;21009;-78
2022/12/09 02:26:02;;;;;;;;;;;;;;;8.26;62.56;93674.78;4993678;28;19913;-77
2022/12/09 02:28:39;;;;;;;;;;;;;;;8.24;62.22;93681.47;5007486;28;19916;-76
2022/12/09 02:31:08;;;;;;;;;;;;;;;8.16;62.34;93675.03;5006058;28;19925;-77
2022/12/09 02:33:44;;;;;;;;;;;;;;;8.02;63.15;93679.59;5007033;28;19964;-77
2022/12/09 02:36:15;;;;;;;;;;;;;;;8.06;62.95;93680.56;4987189;28;20519;-77
2022/12/09 02:38:41;;;;;;;;;;;;;;;8.06;62.72;93680.56;5006102;28;19923;-79
2022/12/09 02:41:25;;;;;;;;;;;;;;;7.84;63.11;93709.63;5004903;28;19912;-77
2022/12/09 02:43:53;;;;;;;;;;;;;;;7.87;63.41;93715.16;5006890;28;19924;-78
2022/12/09 02:46:18;;;;;;;;;;;;;;;7.96;63.44;93701.97;5007669;28;19964;-77
2022/12/09 02:48:47;;;;;;;;;;;;;;;7.96;63.17;93723.16;5005761;28;20381;-74
2022/12/09 02:51:17;;;;;;;;;;;;;;;7.75;63.73;93728.09;4996804;28;19929;-77
2022/12/09 02:53:43;;;;;;;;;;;;;;;7.85;63.86;93724.44;5009267;28;19925;-77
2022/12/09 02:56:10;;;;;;;;;;;;;;;7.95;63.33;93711.00;5010920;28;20577;-76
2022/12/09 02:58:35;;;;;;;;;;;;;;;7.96;63.45;93712.56;5009865;28;19913;-76
2022/12/09 03:01:00;;;;;;;;;;;;;;;7.97;63.29;93709.59;5008616;28;19963;-77
2022/12/09 03:03:27;;;;;;;;;;;;;;;8.02;63.39;93711.38;5007280;28;20708;-76
2022/12/09 03:06:10;;;;;;;;;;;;;;;8.03;63.22;93697.03;5010600;28;19987;-76
2022/12/09 03:08:49;;;;;;;;;;;;;;;8.06;63.45;93704.41;4990961;28;19921;-77
2022/12/09 03:11:18;;;;;;;;;;;;;;;7.81;64.23;93726.13;5010337;28;19921;-76
2022/12/09 03:14:01;;;;;;;;;;;;;;;7.76;64.81;93719.09;5012449;28;19917;-75
2022/12/09 03:16:45;;;;;;;;;;;;;;;7.85;64.55;93721.81;5009563;28;19917;-77
2022/12/09 03:19:29;;;;;;;;;;;;;;;7.93;64.52;93713.16;5008636;28;19917;-77
2022/12/09 03:22:00;;;;;;;;;;;;;;;7.99;64.47;93706.66;5007177;28;20389;-77
2022/12/09 03:24:29;;;;;;;;;;;;;;;8.00;64.21;93718.81;5006109;28;19917;-76
2022/12/09 03:26:55;;;;;;;;;;;;;;;7.84;65.37;93701.69;5007836;28;20381;-77
2022/12/09 03:29:23;;;;;;;;;;;;;;;7.91;65.14;93699.44;5007850;28;19924;-78
2022/12/09 03:31:49;;;;;;;;;;;;;;;7.91;65.36;93696.78;5007230;28;20280;-77
2022/12/09 03:34:16;;;;;;;;;;;;;;;7.97;65.85;93692.94;5008400;28;19924;-78
2022/12/09 03:36:43;;;;;;;;;;;;;;;8.05;65.23;93681.63;5007629;28;19947;-78
2022/12/09 03:39:11;;;;;;;;;;;;;;;8.10;65.22;93692.91;5005728;28;19932;-78
2022/12/09 03:41:40;;;;;;;;;;;;;;;8.00;65.79;93698.44;4993288;28;20269;-75
2022/12/09 03:44:24;;;;;;;;;;;;;;;8.11;65.39;93691.81;5005938;28;19958;-76
2022/12/09 03:46:50;;;;;;;;;;;;;;;8.18;64.72;93675.50;5010852;28;19913;-79
2022/12/09 03:49:15;;;;;;;;;;;;;;;8.16;65.15;93685.63;5001392;28;20443;-78
2022/12/09 03:51:59;;;;;;;;;;;;;;;8.08;64.94;93704.88;5009552;28;20352;-78
2022/12/09 03:54:27;;;;;;;;;;;;;;;8.08;64.98;93695.06;5004911;28;19921;-78
2022/12/09 03:56:54;;;;;;;;;;;;;;;8.12;64.92;93703.19;5008489;28;20256;-78
2022/12/09 03:59:21;;;;;;;;;;;;;;;8.17;64.69;93700.41;5006746;28;20023;-74
2022/12/09 04:01:47;;;;;;;;;;;;;;;8.21;64.57;93701.41;5006716;28;19917;-78
2022/12/09 04:04:12;;;;;;;;;;;;;;;8.17;64.80;93699.66;5009469;28;19921;-80
2022/12/09 04:06:38;;;;;;;;;;;;;;;8.06;65.24;93705.19;5007750;28;19917;-80
2022/12/09 04:09:04;;;;;;;;;;;;;;;8.15;65.31;93705.25;5007419;28;20507;-78
2022/12/09 04:11:32;;;;;;;;;;;;;;;8.21;65.30;93693.44;5006737;28;20369;-78
2022/12/09 04:13:57;;;;;;;;;;;;;;;8.30;64.83;93696.94;5007853;28;19957;-78
2022/12/09 04:16:23;;;;;;;;;;;;;;;8.33;65.07;93690.25;5007518;28;21175;-77
2022/12/09 04:18:48;;;;;;;;;;;;;;;8.35;65.25;93699.47;5008150;28;19917;-78
2022/12/09 04:21:13;;;;;;;;;;;;;;;8.31;65.21;93698.50;5007209;28;19921;-78
2022/12/09 04:23:39;;;;;;;;;;;;;;;8.28;65.52;93701.75;5006338;28;19917;-79
2022/12/09 04:26:04;;;;;;;;;;;;;;;8.37;65.18;93701.81;5007953;28;19924;-75
2022/12/09 04:28:30;;;;;;;;;;;;;;;8.42;64.71;93702.47;5008949;28;20273;-79
2022/12/09 04:30:55;;;;;;;;;;;;;;;8.47;64.48;93702.34;5012682;28;20518;-78
2022/12/09 04:33:20;;;;;;;;;;;;;;;8.44;64.43;93707.47;5008407;28;19925;-78
2022/12/09 04:35:46;;;;;;;;;;;;;;;8.46;63.49;93716.69;5006726;28;19917;-75
2022/12/09 04:38:11;;;;;;;;;;;;;;;8.46;62.98;93711.38;4994466;28;19917;-79
2022/12/09 04:40:37;;;;;;;;;;;;;;;8.25;62.67;93715.63;5005318;28;19913;-79
2022/12/09 04:43:02;;;;;;;;;;;;;;;8.32;62.53;93704.56;4993011;28;20387;-78
2022/12/09 04:45:27;;;;;;;;;;;;;;;8.35;62.67;93707.44;5007679;28;19921;-78
2022/12/09 04:47:52;;;;;;;;;;;;;;;8.36;62.56;93700.25;5005290;28;20384;-78
2022/12/09 04:50:18;;;;;;;;;;;;;;;8.38;62.55;93703.38;5007823;28;20492;-77
2022/12/09 04:52:43;;;;;;;;;;;;;;;8.38;62.38;93712.13;5007342;28;20517;-79
2022/12/09 04:55:08;;;;;;;;;;;;;;;8.36;61.94;93716.16;5005384;28;19921;-79
2022/12/09 04:57:34;;;;;;;;;;;;;;;8.34;62.00;93719.09;5006023;28;20440;-80
2022/12/09 04:59:59;;;;;;;;;;;;;;;8.32;62.11;93718.59;5006637;28;19945;-80
2022/12/09 05:02:24;;;;;;;;;;;;;;;8.35;62.19;93710.06;5006604;28;20266;-79
2022/12/09 05:04:50;;;;;;;;;;;;;;;8.30;62.02;93710.19;5007178;28;19913;-80
2022/12/09 05:07:15;;;;;;;;;;;;;;;8.12;62.35;93717.22;5002612;28;20344;-79
2022/12/09 05:09:40;;;;;;;;;;;;;;;8.05;63.18;93711.56;5006916;28;19956;-79
2022/12/09 05:12:06;;;;;;;;;;;;;;;8.13;63.26;93712.69;5007270;28;19928;-79
2022/12/09 05:14:31;;;;;;;;;;;;;;;8.17;63.37;93703.06;5006487;28;20266;-77
2022/12/09 05:16:56;;;;;;;;;;;;;;;8.11;63.17;93701.63;5005708;28;19913;-77
2022/12/09 05:19:22;;;;;;;;;;;;;;;8.11;63.52;93706.94;5006087;28;20267;-77
2022/12/09 05:21:47;;;;;;;;;;;;;;;8.17;63.12;93703.06;5005701;28;19939;-77
2022/12/09 05:24:13;;;;;;;;;;;;;;;8.20;62.65;93707.00;5006722;28;20445;-79
2022/12/09 05:26:38;;;;;;;;;;;;;;;8.10;62.76;93713.31;5008001;28;19921;-78
2022/12/09 05:29:03;;;;;;;;;;;;;;;8.12;63.20;93700.53;5008522;28;19948;-77
2022/12/09 05:31:29;;;;;;;;;;;;;;;8.12;63.13;93698.66;5008698;28;20309;-78
2022/12/09 05:33:54;;;;;;;;;;;;;;;7.96;63.28;93686.88;5008252;28;19921;-80
2022/12/09 05:36:22;;;;;;;;;;;;;;;8.02;63.45;93711.38;5006748;28;19924;-77
2022/12/09 05:38:48;;;;;;;;;;;;;;;8.04;63.65;93714.50;5009878;28;19931;-78
2022/12/09 05:41:13;;;;;;;;;;;;;;;8.04;63.37;93722.44;5005390;28;19912;-78
2022/12/09 05:43:39;;;;;;;;;;;;;;;7.99;63.68;93733.16;5008409;28;19941;-77
2022/12/09 05:46:05;;;;;;;;;;;;;;;7.91;64.41;93736.50;5007124;28;20027;-78
2022/12/09 05:48:30;;;;;;;;;;;;;;;7.98;63.99;93719.13;5006739;28;20269;-78
2022/12/09 05:50:56;;;;;;;;;;;;;;;8.02;64.15;93735.22;5008128;28;20429;-78
2022/12/09 05:53:22;;;;;;;;;;;;;;;8.06;64.28;93738.84;4990548;28;20037;-78
2022/12/09 05:55:47;;;;;;;;;;;;;;;8.11;64.28;93730.78;5007053;28;19913;-78
2022/12/09 05:58:12;;;;;;;;;;;;;;;8.15;64.18;93734.38;5007591;28;19979;-78
2022/12/09 06:00:37;;;;;;;;;;;;;;;8.11;64.43;93736.84;5006494;28;19917;-79
2022/12/09 06:03:03;;;;;;;;;;;;;;;8.12;65.00;93719.06;5005150;28;20051;-78
2022/12/09 06:05:28;;;;;;;;;;;;;;;8.17;64.71;93718.94;5007072;28;20035;-77
2022/12/09 06:07:53;;;;;;;;;;;;;;;8.09;64.90;93717.03;4995853;28;19917;-77
2022/12/09 06:10:19;;;;;;;;;;;;;;;8.13;65.51;93715.34;5005578;28;19932;-78
2022/12/09 06:12:44;;;;;;;;;;;;;;;8.09;65.64;93722.31;5003165;28;20044;-76
2022/12/09 06:15:09;;;;;;;;;;;;;;;8.17;65.42;93724.25;5007623;28;19978;-77
2022/12/09 06:17:35;;;;;;;;;;;;;;;8.24;65.20;93729.94;5006533;28;19944;-76
2022/12/09 06:20:00;;;;;;;;;;;;;;;8.27;65.19;93728.53;5005342;28;19972;-78
2022/12/09 06:22:25;;;;;;;;;;;;;;;8.21;65.15;93724.47;5005635;28;19971;-78
2022/12/09 06:24:50;;;;;;;;;;;;;;;8.17;66.04;93726.91;5008492;28;19927;-77
2022/12/09 06:27:16;;;;;;;;;;;;;;;8.27;65.57;93725.88;5009089;28;20926;-76
2022/12/09 06:29:41;;;;;;;;;;;;;;;8.14;65.98;93722.22;5010338;28;19924;-77
2022/12/09 06:32:07;;;;;;;;;;;;;;;8.24;65.90;93737.88;5010053;28;19913;-77
2022/12/09 06:34:32;;;;;;;;;;;;;;;8.29;65.52;93737.78;5012182;28;19917;-79
2022/12/09 06:36:57;;;;;;;;;;;;;;;8.36;65.31;93747.97;5008523;28;20290;-79
2022/12/09 06:39:22;;;;;;;;;;;;;;;8.37;65.41;93762.75;5008680;28;19967;-80
2022/12/09 06:41:48;;;;;;;;;;;;;;;8.40;65.35;93767.47;5010432;28;20292;-79
2022/12/09 06:44:13;;;;;;;;;;;;;;;8.42;65.12;93773.25;5009725;28;20228;-79
2022/12/09 06:46:38;;;;;;;;;;;;;;;8.46;64.78;93769.69;5010335;28;20307;-79
2022/12/09 06:49:04;;;;;;;;;;;;;;;8.38;64.67;93765.13;5007197;28;19974;-79
2022/12/09 06:51:29;;;;;;;;;;;;;;;8.45;64.33;93759.41;4998934;28;19925;-77
2022/12/09 06:53:54;;;;;;;;;;;;;;;8.42;64.43;93763.44;5008424;28;19921;-77
2022/12/09 06:56:20;;;;;;;;;;;;;;;8.46;64.44;93774.22;5011215;28;19925;-77
2022/12/09 06:58:45;;;;;;;;;;;;;;;8.38;64.68;93766.97;5008890;28;20289;-77
2022/12/09 07:01:14;;;;;;;;;;;;;;;8.48;64.49;93761.44;5008612;28;19944;-77
2022/12/09 07:03:40;;;;;;;;;;;;;;;8.53;64.73;93758.69;5005451;28;20409;-77
2022/12/09 07:06:06;;;;;;;;;;;;;;;8.54;64.76;93763.69;5005826;28;19925;-78
2022/12/09 07:08:31;;;;;;;;;;;;;;;8.51;64.81;93761.63;5009581;28;19924;-76
2022/12/09 07:10:57;;;;;;;;;;;;;;;8.48;64.99;93770.19;5009523;28;19917;-77
2022/12/09 07:13:22;;;;;;;;;;;;;;;8.55;64.75;93765.25;4997637;28;19921;-78
2022/12/09 07:15:47;;;;;;;;;;;;;;;8.61;64.69;93757.94;5007768;28;19917;-79
2022/12/09 07:18:12;;;;;;;;;;;;;;;8.61;64.84;93754.53;5006965;28;19921;-77
2022/12/09 07:20:38;;;;;;;;;;;;;;;8.62;64.84;93756.09;5005429;28;20349;-77
2022/12/09 07:23:03;;;;;;;;;;;;;;;8.61;64.99;93760.59;5007743;28;20238;-78
2022/12/09 07:25:28;;;;;;;;;;;;;;;8.66;65.08;93767.66;5007043;28;19913;-78
2022/12/09 07:27:53;;;;;;;;;;;;;;;8.67;65.33;93763.91;5006564;28;20452;-78
2022/12/09 07:30:19;;;;;;;;;;;;;;;8.56;65.86;93766.81;5010766;28;19925;-79
2022/12/09 07:32:44;;;;;;;;;;;;;;;8.52;66.48;93760.53;5008037;28;20233;-76
2022/12/09 07:35:09;;;;;;;;;;;;;;;8.49;67.03;93763.81;4993634;28;20404;-79
2022/12/09 07:37:35;;;;;;;;;;;;;;;8.53;66.96;93764.75;5005078;28;19909;-79
2022/12/09 07:40:03;;;;;;;;;;;;;;;8.62;67.23;93769.34;5006230;28;20841;-77
2022/12/09 07:42:28;;;;;;;;;;;;;;;8.68;67.27;93770.78;5000757;28;19925;-76
2022/12/09 07:44:53;;;;;;;;;;;;;;;8.75;67.19;93768.50;4988002;28;19927;-77
2022/12/09 07:47:19;;;;;;;;;;;;;;;8.73;67.23;93762.72;5003238;28;20038;-77
2022/12/09 07:49:44;;;;;;;;;;;;;;;8.65;68.10;93760.81;5002931;28;20047;-77
2022/12/09 07:52:11;;;;;;;;;;;;;;;8.55;69.32;93757.31;4990015;28;19943;-78
2022/12/09 07:54:36;;;;;;;;;;;;;;;8.72;68.78;93746.03;5006703;28;19921;-78
2022/12/09 07:57:01;;;;;;;;;;;;;;;8.87;68.38;93752.81;5006085;28;19955;-78
2022/12/09 07:59:26;;;;;;;;;;;;;;;8.99;67.99;93751.19;4999706;28;20466;-79
2022/12/09 08:01:52;;;;;;;;;;;;;;;8.73;69.61;93749.47;4961020;28;1150021;-77
2022/12/09 08:04:17;;;;;;;;;;;;;;;8.82;68.99;93763.53;5000074;28;20454;-79
2022/12/09 08:06:42;;;;;;;;;;;;;;;8.86;68.75;93751.25;4988451;28;19921;-78
2022/12/09 08:09:10;;;;;;;;;;;;;;;8.98;68.79;93744.31;5003532;28;19920;-79
2022/12/09 08:11:35;;;;;;;;;;;;;;;9.04;69.12;93752.94;5005487;28;20046;-77
2022/12/09 08:14:03;;;;;;;;;;;;;;;9.05;68.66;93762.44;5004357;28;19917;-78
2022/12/09 08:16:28;;;;;;;;;;;;;;;8.86;67.79;93777.75;4993357;28;19939;-79
2022/12/09 08:18:53;;;;;;;;;;;;;;;8.85;68.06;93771.69;5004344;28;19925;-79
2022/12/09 08:21:27;;;;;;;;;;;;;;;8.97;67.76;93779.09;5005059;28;20403;-77
2022/12/09 08:23:53;;;;;;;;;;;;;;;9.09;67.56;93795.25;5006911;28;19956;-78
2022/12/09 08:26:20;;;;;;;;;;;;;;;9.19;67.61;93780.97;5004148;28;19916;-79
2022/12/09 08:28:46;;;;;;;;;;;;;;;9.24;67.20;93778.94;5006514;28;19925;-80
2022/12/09 08:31:12;;;;;;;;;;;;;;;9.16;67.57;93771.75;5007998;28;20284;-79
2022/12/09 08:33:39;;;;;;;;;;;;;;;9.25;67.22;93775.22;5009111;28;20288;-79
2022/12/09 08:36:08;;;;;;;;;;;;;;;9.38;66.78;93763.75;5009978;28;19921;-78
2022/12/09 08:38:33;;;;;;;;;;;;;;;9.43;66.28;93760.94;4998297;28;20011;-79
2022/12/09 08:41:06;;;;;;;;;;;;;;;9.45;65.12;93764.06;5007869;28;20409;-79
2022/12/09 08:43:31;;;;;;;;;;;;;;;9.61;65.05;93761.78;4998931;28;19913;-79
2022/12/09 08:45:58;;;;;;;;;;;;;;;9.64;64.65;93765.69;5005057;28;20377;-79
2022/12/09 08:48:23;;;;;;;;;;;;;;;9.53;64.85;93748.47;5008464;28;19927;-77
2022/12/09 08:50:49;;;;;;;;;;;;;;;9.59;64.41;93742.72;5008934;28;19925;-77
2022/12/09 08:53:14;;;;;;;;;;;;;;;9.71;63.31;93744.78;5008466;28;20011;-77
2022/12/09 08:55:41;;;;;;;;;;;;;;;9.42;61.64;93742.66;5025879;28;19943;-76
2022/12/09 08:58:06;;;;;;;;;;;;;;;9.62;62.46;93736.00;5022250;28;19956;-76
2022/12/09 09:00:31;;;;;;;;;;;;;;;9.76;62.74;93715.44;5031441;28;19925;-78
2022/12/09 09:02:56;;;;;;;;;;;;;;;9.86;62.17;93720.44;5022288;28;20415;-78
2022/12/09 09:05:22;;;;;;;;;;;;;;;9.98;61.84;93712.63;5020303;28;20457;-78
2022/12/09 09:07:47;;;;;;;;;;;;;;;10.02;60.75;93707.50;5018313;28;19913;-78
2022/12/09 09:10:12;;;;;;;;;;;;;;;9.97;60.03;93695.16;5002662;28;19921;-78
2022/12/09 09:12:37;;;;;;;;;;;;;;;10.00;60.53;93705.16;5014900;28;19999;-79
2022/12/09 09:15:03;;;;;;;;;;;;;;;10.02;60.82;93689.69;5014407;28;19943;-79
2022/12/09 09:17:28;;;;;;;;;;;;;;;9.53;59.14;93642.28;4996493;28;20062;-78
2022/12/09 09:19:53;;;;;;;;;;;;;;;9.89;58.92;93691.38;5012680;28;19995;-77
2022/12/09 09:22:18;;;;;;;;;;;;;;;9.86;59.02;93699.19;5011934;28;20215;-78
2022/12/09 09:24:44;;;;;;;;;;;;;;;9.91;59.36;93685.75;5007525;28;19944;-76
2022/12/09 09:27:09;;;;;;;;;;;;;;;9.96;59.07;93682.16;5004554;28;19917;-78
2022/12/09 09:29:34;;;;;;;;;;;;;;;10.08;59.47;93680.44;5009306;28;19925;-78
2022/12/09 09:31:59;;;;;;;;;;;;;;;10.17;59.24;93678.56;5007329;28;19980;-76
2022/12/09 09:34:25;;;;;;;;;;;;;;;10.23;58.32;93669.34;5008240;28;19924;-77
2022/12/09 09:36:51;;;;;;;;;;;;;;;10.25;58.05;93653.88;5004877;28;19931;-78
2022/12/09 09:39:17;;;;;;;;;;;;;;;10.20;58.47;93662.00;4988224;28;19921;-77
2022/12/09 09:41:42;;;;;;;;;;;;;;;10.27;58.21;93654.34;4990020;28;19920;-76
2022/12/09 09:44:28;;;;;;;;;;;;;;;10.37;58.14;93655.16;4993010;28;20020;-77
2022/12/09 09:46:54;;;;;;;;;;;;;;;10.52;57.89;93662.63;4990661;28;20212;-76
2022/12/09 09:49:26;;;;;;;;;;;;;;;10.29;57.74;93638.88;5005056;28;19921;-76
2022/12/09 09:51:51;;;;;;;;;;;;;;;10.25;58.22;93653.88;5007060;28;20179;-78
2022/12/09 09:54:16;;;;;;;;;;;;;;;10.05;58.25;93641.22;5006586;28;19917;-78
2022/12/09 09:57:05;;;;;;;;;;;;;;;9.95;59.32;93627.47;4985611;28;20333;-78
2022/12/09 09:59:52;;;;;;;;;;;;;;;10.19;59.24;93635.75;4994548;28;20500;-77
2022/12/09 10:02:20;;;;;;;;;;;;;;;10.30;58.67;93624.47;5006127;28;20208;-76
2022/12/09 10:04:45;;;;;;;;;;;;;;;10.37;58.43;93600.09;5003818;28;19921;-77
2022/12/09 10:07:37;;;;;;;;;;;;;;;10.42;58.07;93604.44;5005992;28;19940;-77
2022/12/09 10:10:02;;;;;;;;;;;;;;;10.43;58.63;93600.69;5001088;28;19921;-78
2022/12/09 10:12:37;;;;;;;;;;;;;;;10.52;58.09;93596.94;5000890;28;20392;-77
2022/12/09 10:15:11;;;;;;;;;;;;;;;10.48;57.84;93595.22;5007482;28;20478;-77
2022/12/09 10:17:54;;;;;;;;;;;;;;;10.68;58.17;93607.84;5005040;28;20565;-78
2022/12/09 10:20:24;;;;;;;;;;;;;;;10.46;58.01;93558.34;5012716;28;20381;-77
2022/12/09 10:22:58;;;;;;;;;;;;;;;10.81;56.70;93585.56;5008736;28;20462;-79
2022/12/09 10:25:28;;;;;;;;;;;;;;;10.86;56.01;93593.38;5008080;28;19931;-78
2022/12/09 10:28:02;;;;;;;;;;;;;;;10.59;56.02;93561.88;5007120;28;19923;-77
2022/12/09 10:30:28;;;;;;;;;;;;;;;10.33;56.90;93570.69;5006650;28;20289;-77
2022/12/09 10:32:53;;;;;;;;;;;;;;;10.36;58.10;93573.81;5005569;28;19920;-77
2022/12/09 10:35:18;;;;;;;;;;;;;;;10.35;58.13;93565.06;5006379;28;19917;-78
2022/12/09 10:37:44;;;;;;;;;;;;;;;10.32;57.59;93558.47;5007038;28;20269;-77
2022/12/09 10:40:09;;;;;;;;;;;;;;;10.39;57.52;93559.91;4990307;28;20467;-77
2022/12/09 10:45:28;;;;;;;;;;;;;;;10.47;57.78;93561.75;5007975;28;20003;-77
2022/12/09 10:47:53;;;;;;;;;;;;;;;10.63;57.96;93560.13;5006966;28;19913;-78
2022/12/09 10:50:27;;;;;;;;;;;;;;;10.56;57.49;93547.31;5005228;28;19928;-78
2022/12/09 10:52:53;;;;;;;;;;;;;;;10.51;57.51;93544.09;5003399;28;20296;-78
2022/12/09 10:55:25;;;;;;;;;;;;;;;10.58;58.27;93552.34;5005985;28;20327;-77
2022/12/09 10:58:07;;;;;;;;;;;;;;;10.56;58.02;93547.31;5008548;28;19921;-78
2022/12/09 11:00:32;;;;;;;;;;;;;;;10.63;57.94;93546.84;5006508;28;20317;-77
2022/12/09 11:02:58;;;;;;;;;;;;;;;10.57;57.22;93545.44;5005692;28;19925;-77
2022/12/09 11:05:26;;;;;;;;;;;;;;;10.62;57.16;93539.94;5006862;28;20280;-78
2022/12/09 11:07:52;;;;;;;;;;;;;;;10.78;57.18;93548.19;5007570;28;19924;-77
2022/12/09 11:10:19;;;;;;;;;;;;;;;10.93;56.91;93542.31;5007469;28;20730;-77
2022/12/09 11:12:44;;;;;;;;;;;;;;;10.91;55.58;93542.63;4994885;28;20020;-75
2022/12/09 11:15:22;;;;;;;;;;;;;;;11.03;55.49;93539.28;5005014;28;19917;-75
2022/12/09 11:17:59;;;;;;;;;;;;;;;10.81;55.53;93527.03;5007693;28;19917;-76
2022/12/09 11:20:26;;;;;;;;;;;;;;;11.00;55.78;93548.69;5012198;28;19913;-77
2022/12/09 11:22:59;;;;;;;;;;;;;;;11.10;55.17;93529.69;5010132;28;20378;-76
2022/12/09 11:25:26;;;;;;;;;;;;;;;11.07;56.76;93534.88;5009809;28;19927;-77
2022/12/09 11:27:53;;;;;;;;;;;;;;;11.17;55.49;93524.66;5009696;28;19929;-76
2022/12/09 11:30:20;;;;;;;;;;;;;;;11.21;54.51;93529.31;5009948;28;19921;-76
2022/12/09 11:32:57;;;;;;;;;;;;;;;11.27;54.03;93523.50;5007786;28;19921;-76
2022/12/09 11:35:29;;;;;;;;;;;;;;;11.21;54.76;93516.00;5011640;28;19980;-77
2022/12/09 11:37:55;;;;;;;;;;;;;;;11.24;55.50;93524.16;5008270;28;19913;-76
2022/12/09 11:40:22;;;;;;;;;;;;;;;10.95;55.89;93493.03;5009435;28;19921;-77
2022/12/09 11:42:49;;;;;;;;;;;;;;;11.16;56.14;93498.34;5010374;28;19963;-77
2022/12/09 11:45:24;;;;;;;;;;;;;;;11.31;56.04;93497.00;5008769;28;20496;-76
2022/12/09 11:47:51;;;;;;;;;;;;;;;11.26;54.30;93495.31;5010642;28;19927;-76
2022/12/09 11:50:19;;;;;;;;;;;;;;;11.28;54.11;93497.66;5008955;28;20362;-76
2022/12/09 11:53:03;;;;;;;;;;;;;;;11.47;54.34;93495.31;5011444;28;20324;-76
2022/12/09 11:55:28;;;;;;;;;;;;;;;11.55;54.23;93486.50;5006900;28;20108;-76
2022/12/09 11:57:59;;;;;;;;;;;;;;;11.52;54.22;93490.59;5010834;28;20222;-76
2022/12/09 12:00:27;;;;;;;;;;;;;;;11.60;53.60;93488.94;5008818;28;20043;-77
2022/12/09 12:02:55;;;;;;;;;;;;;;;11.43;54.15;93479.22;5010301;28;20091;-77
2022/12/09 12:05:23;;;;;;;;;;;;;;;11.58;54.65;93496.50;5007893;28;19924;-76
2022/12/09 12:07:51;;;;;;;;;;;;;;;11.57;54.60;93495.72;5008354;28;19919;-76
2022/12/09 12:10:25;;;;;;;;;;;;;;;11.63;54.26;93476.88;5008962;28;21033;-77
2022/12/09 12:13:12;;;;;;;;;;;;;;;11.47;54.78;93489.97;5008842;28;19978;-76
2022/12/09 12:15:56;;;;;;;;;;;;;;;11.49;54.79;93467.22;4994420;28;20020;-76
2022/12/09 12:18:22;;;;;;;;;;;;;;;11.40;54.26;93465.75;4994815;28;19924;-77
2022/12/09 12:21:06;;;;;;;;;;;;;;;11.52;54.47;93466.63;5007940;28;19990;-76
2022/12/09 12:23:34;;;;;;;;;;;;;;;11.59;54.82;93482.06;5006943;28;19964;-77
2022/12/09 12:26:20;;;;;;;;;;;;;;;11.68;54.71;93490.00;4992606;28;19919;-76
2022/12/09 12:28:45;;;;;;;;;;;;;;;11.47;54.93;93476.66;4993765;28;20376;-76
2022/12/09 12:31:13;;;;;;;;;;;;;;;11.61;54.74;93474.53;5008606;28;19931;-76
2022/12/09 12:34:02;;;;;;;;;;;;;;;11.73;54.24;93479.94;5008452;28;20008;-76
2022/12/09 12:36:46;;;;;;;;;;;;;;;11.53;53.89;93446.09;4998930;28;19924;-76
2022/12/09 12:39:11;;;;;;;;;;;;;;;11.95;53.59;93489.41;5004153;28;19937;-76
2022/12/09 12:41:44;;;;;;;;;;;;;;;11.89;53.37;93482.72;4991372;28;20357;-76
2022/12/09 12:47:28;;;;;;;;;;;;;;;11.88;53.82;93484.63;5013334;28;19920;-77
2022/12/09 12:49:57;;;;;;;;;;;;;;;11.98;54.07;93488.75;4982952;28;20075;-77
2022/12/09 12:52:25;;;;;;;;;;;;;;;11.81;54.04;93473.72;5008599;28;20495;-77
2022/12/09 12:55:11;;;;;;;;;;;;;;;11.86;54.39;93470.84;5007268;28;19921;-75
2022/12/09 12:57:55;;;;;;;;;;;;;;;11.73;54.26;93466.59;5007377;28;20237;-77
2022/12/09 13:00:22;;;;;;;;;;;;;;;11.64;55.04;93479.19;5008258;28;19944;-77
2022/12/09 13:03:08;;;;;;;;;;;;;;;11.72;54.57;93474.91;5007570;28;19925;-77
2022/12/09 13:05:38;;;;;;;;;;;;;;;11.52;54.80;93461.31;5008555;28;19991;-76